Terminal Aerodrome Forecast
Issued by NWS Cleveland, OH

Home | Current Version | Previous Version | Text Only | Print | Product List | Glossary On
Versions: 1 2 3 4 5 6 7 8 9 10 11 12 13 14 15
000
FTUS41 KCLE 270536
TAFYNG
TAF
KYNG 270536Z 2706/2806 19008KT P6SM SCT008 SCT016 BKN080
      TEMPO 2707/2710 BKN008 OVC015
     FM271000 20008KT 4SM BR SCT004
     FM271400 22010G20KT P6SM BKN015
     FM271600 22015G25KT P6SM BKN040
     FM271900 24015G25KT P6SM BKN050
      TEMPO 2723/2802 3SM -TSRA BR OVC035CB
     FM280500 26010KT 6SM BR BKN035 OVC080=

USA.gov is the U.S. government's official web portal to all federal, state and local government web resources and services.